Time;durP1;ratioP1;P1;durP2;ratioP2;P2;SDS_P1;SDS_P2;PMS_P1;PMS_P2;Temp;Humidity;BMP_temperature;BMP_pressure;BME280_temperature;BME280_humidity;BME280_pressure;Samples;Min_cycle;Max_cycle;Signal;HPM_P1;HPM_P2
2022/11/06 00:01:25;;;;;;;21.03;9.50;;;5.50;1.00;;;;;;5052847;28;20480;-51
2022/11/06 00:03:51;;;;;;;18.02;9.10;;;6.80;1.00;;;;;;5053582;28;20386;-51
2022/11/06 00:09:06;;;;;;;19.40;8.90;;;5.50;1.00;;;;;;5053595;28;20419;-52
2022/11/06 00:11:31;;;;;;;18.23;8.80;;;5.50;1.00;;;;;;5052885;28;20402;-51
2022/11/06 00:13:59;;;;;;;21.57;9.30;;;6.70;1.00;;;;;;5053166;28;20405;-51
2022/11/06 00:16:25;;;;;;;19.55;9.55;;;5.60;1.00;;;;;;5052623;28;20409;-52
2022/11/06 00:18:51;;;;;;;17.87;9.30;;;5.60;1.00;;;;;;5053305;28;20437;-52
2022/11/06 00:21:20;;;;;;;21.55;10.68;;;5.60;1.00;;;;;;5053083;28;20378;-54
2022/11/06 00:23:46;;;;;;;22.63;9.40;;;6.90;1.00;;;;;;5053204;28;20920;-51
2022/11/06 00:26:14;;;;;;;18.20;8.27;;;5.60;1.00;;;;;;5053280;28;20778;-51
2022/11/06 00:28:41;;;;;;;19.92;8.48;;;5.70;1.00;;;;;;5052570;28;21034;-51
2022/11/06 00:31:12;;;;;;;17.17;8.85;;;5.70;1.00;;;;;;5053142;28;20381;-51
2022/11/06 00:33:37;;;;;;;18.20;8.97;;;6.80;1.00;;;;;;5051887;28;20416;-52
2022/11/06 00:36:05;;;;;;;17.17;8.27;;;5.60;1.00;;;;;;5053592;28;20405;-51
2022/11/06 00:38:30;;;;;;;20.10;9.07;;;5.60;1.00;;;;;;5052581;28;20401;-52
2022/11/06 00:41:00;;;;;;;20.13;8.87;;;5.50;1.00;;;;;;5053006;28;20863;-52
2022/11/06 00:43:25;;;;;;;18.80;9.20;;;5.50;1.00;;;;;;5067297;28;20398;-52
2022/11/06 00:45:51;;;;;;;18.37;9.30;;;6.20;1.00;;;;;;5070103;28;20440;-52
2022/11/06 00:48:17;;;;;;;18.20;9.20;;;5.40;1.00;;;;;;5063493;28;20500;-55
2022/11/06 00:50:42;;;;;;;18.88;9.80;;;5.40;1.00;;;;;;5052822;28;20773;-51
2022/11/06 00:53:08;;;;;;;21.47;10.30;;;6.10;1.00;;;;;;5052753;28;20390;-51
2022/11/06 00:55:33;;;;;;;22.75;10.40;;;5.50;1.00;;;;;;5052355;28;20673;-51
2022/11/06 00:57:59;;;;;;;20.37;10.03;;;5.90;1.00;;;;;;5052945;28;20480;-51
2022/11/06 01:00:25;;;;;;;22.80;10.55;;;5.90;1.00;;;;;;5051761;28;20887;-51
2022/11/06 01:02:50;;;;;;;23.63;10.30;;;6.50;1.00;;;;;;5050796;28;20404;-51
2022/11/06 01:05:16;;;;;;;23.63;9.80;;;5.60;1.00;;;;;;5068600;28;20400;-52
2022/11/06 01:07:41;;;;;;;23.00;10.70;;;5.60;1.00;;;;;;5070789;28;20395;-51
2022/11/06 01:10:07;;;;;;;21.80;10.27;;;5.60;1.00;;;;;;5070699;28;20400;-52
2022/11/06 01:12:34;;;;;;;19.52;10.70;;;5.60;1.00;;;;;;5071031;28;20380;-51
2022/11/06 01:15:00;;;;;;;20.63;10.70;;;5.60;1.00;;;;;;5071869;28;20379;-52
2022/11/06 01:17:26;;;;;;;23.23;11.23;;;5.50;1.00;;;;;;5071965;28;20715;-51
2022/11/06 01:19:52;;;;;;;20.38;10.05;;;5.40;1.00;;;;;;5071918;28;20876;-51
2022/11/06 01:22:17;;;;;;;19.53;9.57;;;5.30;1.00;;;;;;5071728;28;20402;-54
2022/11/06 01:24:43;;;;;;;20.75;9.77;;;5.30;1.00;;;;;;5071510;28;20419;-51
2022/11/06 01:27:08;;;;;;;22.07;10.90;;;5.30;1.00;;;;;;5071696;28;20920;-52
2022/11/06 01:29:34;;;;;;;21.30;10.80;;;5.20;1.00;;;;;;5071288;28;20392;-52
2022/11/06 01:32:00;;;;;;;21.48;10.00;;;5.20;1.00;;;;;;5071777;28;20442;-51
2022/11/06 01:34:26;;;;;;;19.20;9.77;;;5.20;1.00;;;;;;5070739;28;20431;-51
2022/11/06 01:36:52;;;;;;;19.93;9.30;;;6.80;1.00;;;;;;5071765;28;20411;-51
2022/11/06 01:39:18;;;;;;;19.30;9.27;;;5.20;1.00;;;;;;5071360;28;20454;-55
2022/11/06 01:41:49;;;;;;;20.70;9.77;;;6.10;1.00;;;;;;5071523;28;20372;-51
2022/11/06 01:44:41;;;;;;;21.80;10.40;;;5.20;1.00;;;;;;5071539;28;20445;-51
2022/11/06 01:47:24;;;;;;;23.90;10.82;;;5.20;1.00;;;;;;5071836;28;20402;-51
2022/11/06 01:49:53;;;;;;;23.33;10.27;;;5.20;1.00;;;;;;5071200;28;20490;-51
2022/11/06 01:52:20;;;;;;;26.05;11.75;;;5.20;1.00;;;;;;5071660;28;20450;-55
2022/11/06 01:54:49;;;;;;;27.92;11.75;;;5.20;1.00;;;;;;5054702;28;20387;-51
2022/11/06 01:57:15;;;;;;;18.27;10.55;;;5.20;1.00;;;;;;5071506;28;20384;-52
2022/11/06 01:59:43;;;;;;;20.67;10.40;;;5.10;1.00;;;;;;5070056;28;20416;-51
2022/11/06 02:02:10;;;;;;;21.35;10.23;;;5.10;1.00;;;;;;5071352;28;20387;-51
2022/11/06 02:04:40;;;;;;;24.05;9.88;;;5.10;1.00;;;;;;5070127;28;20427;-52
2022/11/06 02:07:06;;;;;;;22.42;10.50;;;5.30;1.00;;;;;;5071106;28;20456;-52
2022/11/06 02:09:33;;;;;;;21.50;9.75;;;5.00;1.00;;;;;;5070008;28;20926;-51
2022/11/06 02:12:08;;;;;;;20.60;10.88;;;4.90;1.00;;;;;;5071103;28;20769;-51
2022/11/06 02:14:39;;;;;;;22.60;9.55;;;6.60;1.00;;;;;;5070499;28;20471;-51
2022/11/06 02:17:23;;;;;;;17.65;9.25;;;4.80;1.00;;;;;;5071312;28;20372;-51
2022/11/06 02:20:01;;;;;;;21.50;10.70;;;4.80;3.50;;;;;;5070511;28;20799;-51
2022/11/06 02:22:44;;;;;;;23.92;11.52;;;4.80;1.00;;;;;;5070173;28;20392;-51
2022/11/06 02:25:31;;;;;;;21.55;10.52;;;4.80;1.00;;;;;;5058491;28;20406;-51
2022/11/06 02:28:02;;;;;;;21.27;9.43;;;4.70;9.20;;;;;;5071302;28;20394;-52
2022/11/06 02:30:33;;;;;;;23.85;11.43;;;4.70;35.80;;;;;;5070267;28;20841;-51
2022/11/06 02:33:03;;;;;;;23.20;11.35;;;4.70;22.00;;;;;;5070321;28;20426;-53
2022/11/06 02:35:31;;;;;;;20.80;10.57;;;4.80;37.00;;;;;;5070339;28;20384;-52
2022/11/06 02:38:06;;;;;;;22.23;11.02;;;4.70;53.80;;;;;;5070201;28;20769;-53
2022/11/06 02:40:35;;;;;;;19.90;10.35;;;4.60;28.70;;;;;;5069885;28;20419;-51
2022/11/06 02:43:05;;;;;;;23.10;11.60;;;4.60;32.00;;;;;;5070689;28;20368;-51
2022/11/06 02:45:37;;;;;;;21.85;10.65;;;5.60;30.40;;;;;;5069474;28;20396;-52
2022/11/06 02:48:05;;;;;;;23.65;10.93;;;4.60;8.80;;;;;;5070332;28;20445;-51
2022/11/06 02:50:37;;;;;;;23.77;11.20;;;4.60;11.90;;;;;;5069877;28;20395;-51
2022/11/06 02:53:05;;;;;;;21.33;10.75;;;5.50;5.90;;;;;;5070378;28;20945;-51
2022/11/06 02:55:42;;;;;;;21.23;10.02;;;4.60;11.90;;;;;;5069903;28;20379;-51
2022/11/06 02:58:18;;;;;;;25.55;11.80;;;6.40;37.00;;;;;;5070207;28;20422;-51
2022/11/06 03:00:50;;;;;;;22.70;11.07;;;4.50;58.20;;;;;;5070109;28;20367;-51
2022/11/06 03:03:25;;;;;;;26.40;11.95;;;4.60;42.80;;;;;;5070663;28;20449;-51
2022/11/06 03:06:10;;;;;;;25.52;11.23;;;4.60;35.50;;;;;;5070140;28;20411;-51
2022/11/06 03:08:45;;;;;;;22.48;10.15;;;4.50;8.30;;;;;;5069401;28;20400;-51
2022/11/06 03:11:14;;;;;;;22.20;10.13;;;4.50;5.60;;;;;;5070385;28;20388;-51
2022/11/06 03:14:06;;;;;;;23.90;11.00;;;4.40;11.20;;;;;;5069099;28;20718;-51
2022/11/06 03:16:39;;;;;;;24.00;12.20;;;4.40;5.90;;;;;;5069587;28;20430;-51
2022/11/06 03:19:15;;;;;;;22.83;10.40;;;4.40;16.60;;;;;;5049956;28;20479;-52
2022/11/06 03:21:44;;;;;;;23.85;10.23;;;4.40;8.30;;;;;;5068218;28;20463;-50
2022/11/06 03:24:15;;;;;;;26.58;10.30;;;4.30;12.60;;;;;;5051983;28;20830;-51
2022/11/06 03:26:49;;;;;;;22.95;10.07;;;4.40;23.40;;;;;;5069043;28;20991;-51
2022/11/06 03:29:27;;;;;;;30.88;10.50;;;4.20;36.50;;;;;;5069775;28;20418;-51
2022/11/06 03:32:02;;;;;;;25.73;9.60;;;4.00;49.80;;;;;;5069335;28;20391;-51
2022/11/06 03:34:36;;;;;;;23.10;8.80;;;5.70;83.40;;;;;;5069285;28;20388;-51
2022/11/06 03:37:07;;;;;;;17.95;7.85;;;4.10;42.10;;;;;;5069749;28;20406;-52
2022/11/06 03:39:42;;;;;;;17.67;8.10;;;4.00;40.60;;;;;;5068978;28;20423;-51
2022/11/06 03:42:15;;;;;;;19.10;8.20;;;4.80;22.90;;;;;;5069759;28;20462;-51
2022/11/06 03:44:50;;;;;;;27.75;8.32;;;3.90;58.10;;;;;;5069008;28;20406;-51
2022/11/06 03:47:27;;;;;;;32.72;9.65;;;3.80;95.00;;;;;;5069875;28;20372;-51
2022/11/06 03:50:01;;;;;;;32.10;8.80;;;3.80;99.90;;;;;;5069758;28;20395;-51
2022/11/06 03:52:34;;;;;;;24.52;9.15;;;3.80;99.90;;;;;;5069064;28;20451;-51
2022/11/06 03:55:07;;;;;;;25.43;8.87;;;3.80;99.90;;;;;;5069432;28;20496;-50
2022/11/06 03:57:49;;;;;;;27.52;9.63;;;3.80;99.90;;;;;;5068544;28;20967;-51
2022/11/06 04:00:16;;;;;;;27.02;10.23;;;3.80;99.90;;;;;;5069295;28;20415;-51
2022/11/06 04:02:52;;;;;;;21.50;8.87;;;3.90;99.90;;;;;;5068734;28;20449;-51
2022/11/06 04:05:23;;;;;;;24.10;9.00;;;4.00;99.90;;;;;;5069678;28;20417;-51
2022/11/06 04:16:14;;;;;;;30.20;9.35;;;4.20;99.90;;;;;;5069250;28;20428;-51
2022/11/06 04:18:40;;;;;;;30.00;10.17;;;5.00;99.90;;;;;;5068591;28;20537;-51
2022/11/06 04:21:24;;;;;;;24.63;9.50;;;5.60;99.90;;;;;;5069587;28;20770;-51
2022/11/06 04:27:14;;;;;;;27.00;11.07;;;4.40;99.90;;;;;;5059980;28;20971;-51
2022/11/06 04:30:03;;;;;;;19.23;9.23;;;4.40;99.90;;;;;;5068192;28;20489;-51
2022/11/06 04:32:36;;;;;;;30.00;9.35;;;4.40;99.90;;;;;;5067635;28;20419;-50
2022/11/06 04:35:15;;;;;;;37.53;10.30;;;4.30;99.90;;;;;;5069298;28;20387;-51
2022/11/06 04:37:43;;;;;;;37.75;9.80;;;4.30;99.90;;;;;;5068346;28;20404;-51
2022/11/06 04:40:33;;;;;;;42.97;9.10;;;4.20;99.90;;;;;;5069290;28;20414;-51
2022/11/06 04:43:06;;;;;;;63.80;10.40;;;4.10;99.90;;;;;;5068678;28;20815;-51
2022/11/06 04:45:37;;;;;;;58.05;11.00;;;4.00;99.90;;;;;;5072099;28;20860;-50
2022/11/06 04:48:04;;;;;;;78.43;10.73;;;3.90;99.90;;;;;;5072746;28;20419;-51
2022/11/06 04:50:34;;;;;;;59.95;10.50;;;4.00;99.90;;;;;;5072298;28;20474;-53
2022/11/06 04:53:02;;;;;;;61.10;9.33;;;6.00;99.90;;;;;;5072547;28;20438;-51
2022/11/06 04:55:29;;;;;;;33.70;8.67;;;5.20;99.90;;;;;;5071973;28;20414;-51
2022/11/06 04:57:54;;;;;;;36.08;9.27;;;5.80;99.90;;;;;;5072271;28;20784;-52
2022/11/06 05:00:20;;;;;;;29.95;8.80;;;4.20;99.90;;;;;;5072661;28;20403;-51
2022/11/06 05:02:46;;;;;;;33.27;8.13;;;4.10;99.90;;;;;;5071575;28;20806;-51
2022/11/06 05:05:11;;;;;;;40.50;8.60;;;4.00;99.90;;;;;;5072484;28;20528;-51
2022/11/06 05:07:37;;;;;;;37.43;8.40;;;3.90;99.90;;;;;;5071427;28;20402;-51
2022/11/06 05:10:03;;;;;;;23.93;7.97;;;3.90;99.90;;;;;;5071655;28;20418;-51
2022/11/06 05:12:29;;;;;;;32.78;8.18;;;4.00;99.90;;;;;;5062189;28;20420;-52
2022/11/06 05:14:54;;;;;;;27.42;7.30;;;5.40;99.90;;;;;;5052672;28;20366;-51
2022/11/06 05:17:20;;;;;;;16.37;6.83;;;4.40;99.90;;;;;;5062033;28;20388;-51
2022/11/06 05:19:45;;;;;;;37.85;8.15;;;4.00;99.90;;;;;;5071044;28;20419;-53
2022/11/06 05:24:55;;;;;;;23.00;7.80;;;4.00;99.90;;;;;;5072153;28;20513;-51
2022/11/06 05:27:21;;;;;;;24.70;7.50;;;3.90;99.30;;;;;;5071914;28;20470;-51
2022/11/06 05:29:46;;;;;;;18.70;7.50;;;3.90;99.90;;;;;;5071764;28;20387;-51
2022/11/06 05:32:12;;;;;;;23.13;7.93;;;5.00;92.60;;;;;;5071656;28;20400;-52
2022/11/06 05:34:37;;;;;;;27.80;7.73;;;3.90;86.40;;;;;;5071057;28;20742;-51
2022/11/06 05:37:03;;;;;;;21.70;7.97;;;3.80;99.90;;;;;;5072255;28;20463;-51
2022/11/06 05:39:29;;;;;;;24.77;6.63;;;3.80;99.90;;;;;;5070725;28;20746;-51
2022/11/06 05:41:54;;;;;;;25.60;7.33;;;3.80;99.90;;;;;;5071873;28;20391;-52
2022/11/06 05:44:20;;;;;;;26.37;7.10;;;3.80;99.90;;;;;;5071923;28;20388;-51
2022/11/06 05:46:45;;;;;;;19.40;6.80;;;5.30;97.40;;;;;;5071170;28;20444;-51
2022/11/06 05:49:11;;;;;;;17.50;6.77;;;5.30;92.90;;;;;;5071432;28;20726;-51
2022/11/06 05:51:37;;;;;;;17.55;6.88;;;3.70;95.50;;;;;;5071012;28;20410;-51
2022/11/06 05:54:03;;;;;;;20.13;6.67;;;3.70;84.70;;;;;;5071125;28;20406;-53
2022/11/06 05:56:28;;;;;;;15.27;5.90;;;3.70;47.10;;;;;;5070617;28;20802;-51
2022/11/06 05:58:54;;;;;;;21.07;6.50;;;3.60;26.00;;;;;;5071750;28;20562;-51
2022/11/06 06:01:19;;;;;;;17.13;6.32;;;3.50;11.40;;;;;;5071365;28;20408;-51
2022/11/06 06:03:45;;;;;;;18.83;6.23;;;3.40;38.40;;;;;;5070436;28;21028;-51
2022/11/06 06:06:11;;;;;;;17.33;6.28;;;3.40;45.50;;;;;;5071691;28;20463;-52
2022/11/06 06:08:36;;;;;;;20.27;6.67;;;3.30;40.20;;;;;;5070545;28;20396;-51
2022/11/06 06:11:08;;;;;;;12.35;5.43;;;3.20;44.60;;;;;;5071091;28;20367;-51
2022/11/06 06:13:36;;;;;;;17.17;6.20;;;3.20;77.00;;;;;;5066642;28;20479;-51
2022/11/06 06:16:03;;;;;;;16.95;5.38;;;3.20;76.00;;;;;;5052716;28;20463;-51
2022/11/06 06:18:29;;;;;;;17.10;6.30;;;3.10;54.70;;;;;;5060656;28;20392;-51
2022/11/06 06:20:57;;;;;;;15.60;6.00;;;3.10;71.80;;;;;;5071255;28;20384;-51
2022/11/06 06:23:23;;;;;;;16.25;5.90;;;3.10;99.90;;;;;;5070649;28;20400;-55
2022/11/06 06:25:49;;;;;;;15.73;6.10;;;3.20;99.90;;;;;;5070476;28;20870;-51
2022/11/06 06:28:14;;;;;;;10.65;5.97;;;3.20;99.10;;;;;;5070947;28;20392;-51
2022/11/06 06:30:40;;;;;;;13.13;5.50;;;4.10;80.30;;;;;;5069983;28;20380;-51
2022/11/06 06:33:06;;;;;;;16.77;5.43;;;3.10;43.00;;;;;;5066177;28;20763;-51
2022/11/06 06:35:32;;;;;;;15.23;5.93;;;4.00;1.00;;;;;;5066950;28;20398;-52
2022/11/06 06:37:58;;;;;;;14.32;5.75;;;2.90;1.00;;;;;;5058968;28;20383;-51
2022/11/06 06:40:25;;;;;;;13.32;5.05;;;2.80;1.00;;;;;;5070107;28;20735;-55
2022/11/06 06:42:50;;;;;;;12.57;5.82;;;3.30;8.10;;;;;;5070056;28;20942;-53
2022/11/06 06:45:16;;;;;;;13.60;5.97;;;2.80;32.70;;;;;;5070197;28;20380;-51
2022/11/06 06:47:42;;;;;;;13.85;5.30;;;2.80;38.10;;;;;;5069411;28;20392;-51
2022/11/06 06:50:08;;;;;;;14.63;6.47;;;2.80;59.30;;;;;;5070971;28;20382;-51
2022/11/06 06:52:34;;;;;;;14.20;6.22;;;2.80;80.00;;;;;;5069158;28;20711;-51
2022/11/06 06:54:59;;;;;;;12.10;6.10;;;2.90;99.00;;;;;;5070364;28;20384;-51
2022/11/06 06:57:25;;;;;;;14.40;6.45;;;2.90;99.90;;;;;;5070446;28;20486;-54
2022/11/06 06:59:50;;;;;;;14.10;5.73;;;4.00;99.90;;;;;;5069989;28;20400;-51
2022/11/06 07:02:16;;;;;;;22.02;6.63;;;3.00;99.90;;;;;;5070128;28;20404;-51
2022/11/06 07:04:41;;;;;;;19.80;7.60;;;3.00;99.90;;;;;;5061778;28;20892;-52
2022/11/06 07:07:07;;;;;;;17.08;7.03;;;3.10;99.90;;;;;;5069067;28;20472;-51
2022/11/06 07:09:33;;;;;;;23.17;8.00;;;4.30;99.90;;;;;;5069311;28;20411;-51
2022/11/06 07:11:58;;;;;;;28.33;7.00;;;3.30;99.90;;;;;;5070185;28;20403;-51
2022/11/06 07:14:24;;;;;;;20.30;7.60;;;3.30;99.90;;;;;;5069446;28;20453;-55
2022/11/06 07:16:50;;;;;;;19.97;9.30;;;3.50;99.90;;;;;;5069292;28;20379;-51
2022/11/06 07:19:15;;;;;;;18.00;7.93;;;3.70;99.90;;;;;;5069812;28;20407;-54
2022/11/06 07:21:41;;;;;;;24.20;7.80;;;3.90;99.90;;;;;;5063176;28;20444;-53
2022/11/06 07:24:07;;;;;;;20.73;7.73;;;5.30;99.90;;;;;;5069035;28;20514;-52
2022/11/06 07:26:32;;;;;;;21.83;6.90;;;4.10;99.90;;;;;;5068867;28;20865;-52
2022/11/06 07:28:58;;;;;;;18.40;7.90;;;4.20;99.90;;;;;;5069093;28;20403;-52
2022/11/06 07:31:23;;;;;;;20.17;8.65;;;4.30;99.90;;;;;;5069330;28;20385;-52
2022/11/06 07:33:49;;;;;;;20.93;8.50;;;4.70;99.90;;;;;;5066253;28;20441;-52
2022/11/06 07:36:15;;;;;;;16.05;7.60;;;5.20;99.90;;;;;;5067372;28;20399;-52
2022/11/06 07:38:41;;;;;;;17.90;8.20;;;7.00;99.90;;;;;;5067124;28;20469;-50
2022/11/06 07:41:10;;;;;;;16.80;7.60;;;5.80;99.90;;;;;;5064215;28;20757;-51
2022/11/06 07:43:36;;;;;;;16.80;7.70;;;6.60;99.90;;;;;;5049816;28;20487;-51
2022/11/06 07:46:04;;;;;;;17.87;8.57;;;7.20;1.00;;;;;;5066427;28;20462;-50
2022/11/06 07:48:30;;;;;;;15.15;7.45;;;7.80;99.90;;;;;;5067988;28;20392;-53
2022/11/06 07:50:57;;;;;;;15.20;8.50;;;8.20;1.00;;;;;;5066829;28;20395;-54
2022/11/06 07:53:23;;;;;;;16.03;8.00;;;9.10;1.00;;;;;;5068834;28;20877;-52
2022/11/06 07:55:50;;;;;;;16.38;7.68;;;9.80;99.90;;;;;;5066900;28;20404;-53
2022/11/06 07:58:16;;;;;;;18.13;8.23;;;10.30;99.90;;;;;;5060230;28;20394;-51
2022/11/06 08:00:49;;;;;;;13.73;7.35;;;10.90;99.90;;;;;;5064527;28;20427;-52
2022/11/06 08:03:15;;;;;;;13.18;6.35;;;11.40;1.00;;;;;;5061618;28;20836;-53
2022/11/06 08:05:41;;;;;;;14.63;7.00;;;11.20;1.00;;;;;;5060735;28;20399;-51
2022/11/06 08:08:07;;;;;;;15.50;6.40;;;11.90;1.00;;;;;;5060888;28;20408;-51
2022/11/06 08:10:32;;;;;;;12.38;6.05;;;13.00;1.00;;;;;;5062889;28;20409;-51
2022/11/06 08:12:59;;;;;;;11.23;5.40;;;13.30;1.00;;;;;;5066200;28;20433;-52
2022/11/06 08:15:25;;;;;;;12.68;5.72;;;13.40;1.00;;;;;;5066849;28;20745;-51
2022/11/06 08:17:50;;;;;;;10.70;5.60;;;12.30;1.00;;;;;;5061580;28;20380;-51
2022/11/06 08:20:16;;;;;;;11.10;5.33;;;11.90;1.00;;;;;;5070084;28;20503;-51
2022/11/06 08:22:42;;;;;;;10.77;5.80;;;11.90;1.00;;;;;;5070287;28;20522;-52
2022/11/06 08:25:08;;;;;;;10.60;5.03;;;12.10;1.00;;;;;;5072251;28;20726;-52
2022/11/06 08:27:34;;;;;;;13.57;5.80;;;13.00;1.00;;;;;;5061507;28;20400;-53
2022/11/06 08:29:59;;;;;;;9.70;5.00;;;13.60;1.00;;;;;;5045117;28;20919;-53
2022/11/06 08:32:27;;;;;;;9.75;4.97;;;14.50;1.00;;;;;;5070455;28;20529;-54
2022/11/06 08:34:52;;;;;;;13.30;5.77;;;15.20;99.90;;;;;;5061562;28;20409;-52
2022/11/06 08:37:18;;;;;;;10.45;5.00;;;15.40;99.90;;;;;;5070209;28;20743;-52
2022/11/06 08:39:44;;;;;;;12.13;6.00;;;15.80;99.90;;;;;;5069799;28;20469;-53
2022/11/06 08:42:10;;;;;;;11.57;5.43;;;15.10;99.90;;;;;;5062307;28;20414;-52
2022/11/06 08:44:36;;;;;;;10.45;5.38;;;15.90;99.90;;;;;;5062853;28;20408;-53
2022/11/06 08:47:02;;;;;;;10.82;5.03;;;16.70;99.90;;;;;;5060988;28;20403;-53
2022/11/06 08:49:27;;;;;;;12.30;5.90;;;16.90;99.90;;;;;;5068785;28;20397;-56
2022/11/06 08:51:53;;;;;;;10.77;5.70;;;17.40;99.90;;;;;;5059938;28;20749;-52
2022/11/06 08:54:19;;;;;;;11.23;5.57;;;16.60;99.90;;;;;;5065117;28;20388;-53
2022/11/06 08:56:45;;;;;;;11.98;6.30;;;16.50;99.90;;;;;;5059085;28;20420;-52
2022/11/06 08:59:11;;;;;;;11.03;5.90;;;16.90;99.90;;;;;;5066534;28;20416;-52
2022/11/06 09:01:36;;;;;;;11.80;5.60;;;16.50;99.90;;;;;;5065093;28;20415;-52
2022/11/06 09:04:03;;;;;;;14.17;5.90;;;16.40;99.90;;;;;;5058931;28;20720;-53
2022/11/06 09:06:28;;;;;;;10.88;5.63;;;15.70;99.90;;;;;;5060726;28;20475;-55
2022/11/06 09:08:55;;;;;;;10.80;5.40;;;15.60;99.90;;;;;;5061152;28;20494;-53
2022/11/06 09:11:21;;;;;;;11.00;6.00;;;16.30;99.90;;;;;;5068885;28;20939;-52
2022/11/06 09:13:46;;;;;;;10.93;5.90;;;16.60;99.90;;;;;;5063530;28;20955;-53
2022/11/06 09:16:12;;;;;;;12.50;5.77;;;16.90;99.90;;;;;;5070765;28;20406;-58
2022/11/06 09:18:38;;;;;;;10.00;5.60;;;17.10;99.90;;;;;;5062024;28;20397;-53
2022/11/06 09:21:03;;;;;;;11.70;5.60;;;17.60;99.90;;;;;;5069108;28;20499;-53
2022/11/06 09:23:29;;;;;;;9.60;5.40;;;17.30;99.90;;;;;;5055950;28;20903;-56
2022/11/06 09:25:56;;;;;;;11.20;5.50;;;16.40;99.90;;;;;;5060748;28;20875;-53
2022/11/06 09:28:22;;;;;;;12.18;6.00;;;16.10;99.90;;;;;;5065526;28;20410;-54
2022/11/06 09:30:47;;;;;;;12.57;6.15;;;15.40;99.90;;;;;;5066274;28;20561;-54
2022/11/06 09:33:13;;;;;;;11.10;5.60;;;15.70;99.90;;;;;;5060967;28;20427;-54
2022/11/06 09:35:39;;;;;;;10.90;4.80;;;15.70;99.90;;;;;;5061297;28;20738;-52
2022/11/06 09:38:14;;;;;;;10.23;5.20;;;16.80;99.90;;;;;;5061532;28;20396;-52
2022/11/06 09:40:52;;;;;;;12.40;5.88;;;17.30;99.90;;;;;;5075156;28;20416;-53
2022/11/06 09:43:50;;;;;;;10.30;5.20;;;17.60;99.90;;;;;;5078911;28;20417;-53
2022/11/06 09:46:23;;;;;;;10.60;5.20;;;17.00;99.90;;;;;;5063099;28;20407;-53
2022/11/06 09:49:04;;;;;;;11.60;5.80;;;18.70;99.90;;;;;;5070024;28;20482;-53
2022/11/06 09:51:36;;;;;;;11.25;5.78;;;18.40;99.90;;;;;;5062848;28;20500;-55
2022/11/06 09:54:18;;;;;;;11.45;5.63;;;18.10;99.90;;;;;;5068093;28;20471;-52
2022/11/06 09:56:46;;;;;;;9.95;4.85;;;17.80;99.90;;;;;;5060927;28;20814;-54
2022/11/06 09:59:16;;;;;;;9.63;4.53;;;18.20;99.90;;;;;;5067458;28;20407;-52
2022/11/06 10:01:46;;;;;;;9.35;4.65;;;18.40;99.90;;;;;;5069323;28;20486;-52
2022/11/06 10:04:25;;;;;;;9.90;4.78;;;18.30;99.90;;;;;;5069817;28;20380;-52
2022/11/06 10:06:52;;;;;;;9.40;4.73;;;18.40;99.90;;;;;;5055196;28;20401;-53
2022/11/06 10:09:18;;;;;;;10.30;4.90;;;18.90;99.90;;;;;;5063593;28;20435;-52
2022/11/06 10:12:02;;;;;;;10.43;4.80;;;18.20;99.90;;;;;;5067279;28;20418;-52
2022/11/06 10:14:43;;;;;;;9.80;4.70;;;17.60;99.90;;;;;;5067521;28;20405;-55
2022/11/06 10:17:14;;;;;;;10.70;4.80;;;17.50;99.90;;;;;;5078716;28;20382;-53
2022/11/06 10:19:58;;;;;;;9.60;4.70;;;17.50;99.90;;;;;;5077134;28;20419;-54
2022/11/06 10:22:38;;;;;;;9.52;4.70;;;17.40;99.90;;;;;;5075823;28;20909;-53
2022/11/06 10:25:21;;;;;;;9.00;4.60;;;17.70;99.90;;;;;;5049398;28;20468;-53
2022/11/06 10:28:13;;;;;;;10.52;5.80;;;18.50;99.90;;;;;;5051169;28;20754;-54
2022/11/06 10:31:05;;;;;;;9.88;4.20;;;18.70;99.90;;;;;;5053647;28;20452;-54
2022/11/06 10:33:59;;;;;;;12.25;4.65;;;18.60;99.90;;;;;;5049790;28;21160;-56
2022/11/06 10:36:49;;;;;;;10.43;4.70;;;17.70;99.90;;;;;;5054981;28;20439;-52
2022/11/06 10:39:20;;;;;;;9.60;4.10;;;17.50;99.90;;;;;;5053322;28;20558;-55
2022/11/06 10:41:55;;;;;;;9.88;4.70;;;17.00;99.90;;;;;;5052300;28;20415;-54
2022/11/06 10:44:27;;;;;;;10.07;4.30;;;16.60;99.90;;;;;;5054032;28;20405;-56
2022/11/06 10:46:59;;;;;;;10.68;4.88;;;15.70;99.90;;;;;;5054169;28;20912;-52
2022/11/06 10:49:35;;;;;;;11.50;5.30;;;15.60;99.90;;;;;;5052248;28;20393;-52
2022/11/06 10:52:10;;;;;;;10.90;5.05;;;15.30;99.90;;;;;;5051810;28;20377;-51
2022/11/06 10:54:41;;;;;;;11.23;5.32;;;15.00;99.90;;;;;;5063346;28;20413;-52
2022/11/06 10:57:27;;;;;;;11.25;4.93;;;14.60;99.90;;;;;;5052923;28;20566;-50
2022/11/06 10:59:53;;;;;;;11.48;5.38;;;14.10;99.90;;;;;;5051573;28;20921;-52
2022/11/06 11:02:24;;;;;;;11.25;5.25;;;13.30;99.90;;;;;;5053440;28;20435;-52
2022/11/06 11:04:50;;;;;;;11.13;4.68;;;12.80;99.90;;;;;;5060247;28;20406;-51
2022/11/06 11:07:16;;;;;;;12.65;5.50;;;12.80;99.90;;;;;;5054673;28;20409;-51
2022/11/06 11:09:44;;;;;;;13.27;5.43;;;12.90;99.90;;;;;;5048373;28;20941;-51
2022/11/06 11:12:31;;;;;;;11.00;4.75;;;13.00;99.90;;;;;;5052164;28;20489;-51
2022/11/06 11:15:11;;;;;;;11.55;4.82;;;12.70;99.90;;;;;;5052669;28;20412;-51
2022/11/06 11:17:36;;;;;;;11.90;5.55;;;12.50;99.90;;;;;;5051440;28;20401;-51
2022/11/06 11:20:03;;;;;;;11.23;5.20;;;12.10;99.90;;;;;;5060650;28;20460;-51
2022/11/06 11:22:29;;;;;;;9.83;4.47;;;12.00;99.90;;;;;;5064662;28;20873;-57
2022/11/06 11:25:03;;;;;;;12.05;5.28;;;11.90;99.90;;;;;;5068272;28;20399;-50
2022/11/06 11:27:36;;;;;;;10.45;5.20;;;12.10;99.90;;;;;;5056604;28;20404;-55
2022/11/06 11:30:04;;;;;;;12.93;5.50;;;12.10;99.90;;;;;;5056947;28;20488;-50
2022/11/06 11:32:30;;;;;;;11.32;5.15;;;12.20;99.90;;;;;;5063028;28;20423;-54
2022/11/06 11:34:57;;;;;;;12.52;5.18;;;12.30;99.90;;;;;;5055582;28;20397;-51
2022/11/06 11:37:32;;;;;;;10.50;4.65;;;12.50;99.90;;;;;;5053161;28;20483;-51
2022/11/06 11:40:34;;;;;;;10.48;4.72;;;12.90;99.90;;;;;;5049768;28;20409;-50
2022/11/06 11:43:18;;;;;;;9.93;4.18;;;13.10;99.90;;;;;;5052129;28;20496;-51
2022/11/06 11:46:00;;;;;;;9.40;4.17;;;13.20;99.90;;;;;;5050219;28;20470;-51
2022/11/06 11:48:25;;;;;;;10.77;4.57;;;13.00;99.90;;;;;;5054230;28;20387;-51
2022/11/06 11:50:51;;;;;;;8.73;3.80;;;12.90;99.90;;;;;;5051720;28;20412;-51
2022/11/06 11:53:21;;;;;;;9.00;3.60;;;13.20;99.90;;;;;;5069928;28;21269;-50
2022/11/06 11:55:51;;;;;;;8.60;3.30;;;13.60;99.90;;;;;;5071716;28;20379;-51
2022/11/06 11:58:21;;;;;;;8.93;3.60;;;13.70;99.90;;;;;;5062718;28;20452;-51
2022/11/06 12:00:53;;;;;;;9.18;3.78;;;13.60;99.90;;;;;;5065195;28;20435;-51
2022/11/06 12:03:20;;;;;;;8.68;3.40;;;13.50;99.90;;;;;;5064479;28;20412;-51
2022/11/06 12:05:46;;;;;;;8.65;3.60;;;13.60;99.90;;;;;;5063893;28;20392;-51
2022/11/06 12:08:21;;;;;;;10.00;3.70;;;13.60;99.90;;;;;;5060066;28;20750;-51
2022/11/06 12:10:47;;;;;;;10.13;3.60;;;13.60;99.90;;;;;;5065882;28;20509;-50
2022/11/06 12:13:15;;;;;;;8.48;3.70;;;13.80;99.90;;;;;;5057175;28;20482;-50
2022/11/06 12:15:56;;;;;;;9.68;3.60;;;13.80;99.90;;;;;;5057337;28;20412;-51
2022/11/06 12:18:25;;;;;;;9.40;3.67;;;13.60;99.90;;;;;;5057696;28;20408;-51
2022/11/06 12:21:12;;;;;;;9.25;4.10;;;13.60;99.90;;;;;;5051787;28;20440;-51
2022/11/06 12:24:00;;;;;;;10.57;3.75;;;13.80;99.90;;;;;;5060351;28;20543;-51
2022/11/06 12:26:41;;;;;;;9.27;3.05;;;13.70;99.90;;;;;;5052921;28;20842;-51
2022/11/06 12:29:13;;;;;;;9.43;3.75;;;13.50;99.90;;;;;;5056856;28;20751;-51
2022/11/06 12:31:50;;;;;;;10.77;3.92;;;13.40;99.90;;;;;;5060006;28;20443;-51
2022/11/06 12:34:32;;;;;;;9.57;4.00;;;13.30;99.90;;;;;;5064167;28;20993;-51
2022/11/06 12:37:16;;;;;;;10.48;4.45;;;13.50;99.90;;;;;;5062054;28;20409;-51
2022/11/06 12:39:51;;;;;;;9.70;4.00;;;13.50;99.90;;;;;;5058694;28;20478;-51
2022/11/06 12:42:19;;;;;;;10.18;4.00;;;13.70;99.90;;;;;;5061518;28;20498;-51
2022/11/06 12:44:46;;;;;;;9.43;4.10;;;13.60;99.90;;;;;;5058244;28;20762;-51
2022/11/06 12:47:38;;;;;;;9.10;4.10;;;13.60;99.90;;;;;;5058159;28;20471;-51
2022/11/06 12:50:25;;;;;;;10.07;4.20;;;13.50;99.90;;;;;;5065580;28;20393;-51
2022/11/06 12:53:00;;;;;;;9.77;4.07;;;13.50;99.90;;;;;;5063274;28;20464;-52
2022/11/06 12:55:30;;;;;;;9.98;3.97;;;13.20;99.90;;;;;;5059386;28;20489;-52
2022/11/06 12:58:35;;;;;;;10.50;4.00;;;13.20;99.90;;;;;;5063019;28;20478;-51
2022/11/06 13:01:21;;;;;;;9.98;4.22;;;13.10;99.90;;;;;;5040970;28;20483;-51
2022/11/06 13:04:27;;;;;;;9.95;4.15;;;13.10;99.90;;;;;;5058395;28;20395;-51
2022/11/06 13:07:01;;;;;;;10.45;3.85;;;13.20;99.90;;;;;;5015703;28;20444;-54
2022/11/06 13:09:38;;;;;;;8.60;3.60;;;13.40;99.90;;;;;;5067413;28;20419;-51
2022/11/06 13:12:28;;;;;;;8.23;3.25;;;13.40;99.90;;;;;;5058903;28;20480;-52
2022/11/06 13:15:40;;;;;;;9.15;3.15;;;13.40;99.90;;;;;;5057157;28;20416;-52
2022/11/06 13:18:33;;;;;;;8.95;3.40;;;13.60;99.90;;;;;;5042244;28;20516;-52
2022/11/06 13:21:34;;;;;;;9.52;3.30;;;13.70;99.90;;;;;;5062199;28;20417;-51